sensor_id;sensor_type;location;lat;lon;timestamp;P1;durP1;ratioP1;P2;durP2;ratioP2
54269;SDS011;40181;51.560;13.000;2023-04-06T00:01:28;2.13;;;1.83;;
54269;SDS011;40181;51.560;13.000;2023-04-06T00:03:57;3.72;;;2.28;;
54269;SDS011;40181;51.560;13.000;2023-04-06T00:06:28;3.42;;;1.88;;
54269;SDS011;40181;51.560;13.000;2023-04-06T00:08:58;2.08;;;1.52;;
54269;SDS011;40181;51.560;13.000;2023-04-06T00:11:28;2.30;;;2.03;;
54269;SDS011;40181;51.560;13.000;2023-04-06T00:13:57;6.97;;;2.10;;
54269;SDS011;40181;51.560;13.000;2023-04-06T00:16:26;2.58;;;1.88;;
54269;SDS011;40181;51.560;13.000;2023-04-06T00:18:55;3.42;;;2.10;;
54269;SDS011;40181;51.560;13.000;2023-04-06T00:21:24;4.53;;;2.90;;
54269;SDS011;40181;51.560;13.000;2023-04-06T00:23:56;3.15;;;2.30;;
54269;SDS011;40181;51.560;13.000;2023-04-06T00:26:25;1.60;;;1.50;;
54269;SDS011;40181;51.560;13.000;2023-04-06T00:28:54;2.50;;;2.30;;
54269;SDS011;40181;51.560;13.000;2023-04-06T00:31:24;2.17;;;1.98;;
54269;SDS011;40181;51.560;13.000;2023-04-06T00:33:53;4.25;;;2.45;;
54269;SDS011;40181;51.560;13.000;2023-04-06T00:36:22;2.00;;;1.80;;
54269;SDS011;40181;51.560;13.000;2023-04-06T00:38:51;2.33;;;1.90;;
54269;SDS011;40181;51.560;13.000;2023-04-06T00:41:23;3.17;;;2.33;;
54269;SDS011;40181;51.560;13.000;2023-04-06T00:43:53;3.28;;;2.63;;
54269;SDS011;40181;51.560;13.000;2023-04-06T00:46:22;2.45;;;2.10;;
54269;SDS011;40181;51.560;13.000;2023-04-06T00:48:51;2.70;;;2.08;;
54269;SDS011;40181;51.560;13.000;2023-04-06T00:51:20;4.05;;;2.22;;
54269;SDS011;40181;51.560;13.000;2023-04-06T00:53:50;2.20;;;2.00;;
54269;SDS011;40181;51.560;13.000;2023-04-06T00:56:19;2.95;;;2.08;;
54269;SDS011;40181;51.560;13.000;2023-04-06T00:58:51;3.15;;;2.58;;
54269;SDS011;40181;51.560;13.000;2023-04-06T01:01:20;1.95;;;1.80;;
54269;SDS011;40181;51.560;13.000;2023-04-06T01:03:50;3.63;;;2.30;;
54269;SDS011;40181;51.560;13.000;2023-04-06T01:06:20;2.57;;;2.20;;
54269;SDS011;40181;51.560;13.000;2023-04-06T01:08:49;2.22;;;2.00;;
54269;SDS011;40181;51.560;13.000;2023-04-06T01:11:19;2.45;;;2.08;;
54269;SDS011;40181;51.560;13.000;2023-04-06T01:13:51;1.95;;;1.80;;
54269;SDS011;40181;51.560;13.000;2023-04-06T01:16:20;3.72;;;2.33;;
54269;SDS011;40181;51.560;13.000;2023-04-06T01:18:49;2.22;;;2.00;;
54269;SDS011;40181;51.560;13.000;2023-04-06T01:21:18;2.20;;;1.77;;
54269;SDS011;40181;51.560;13.000;2023-04-06T01:23:50;2.67;;;2.20;;
54269;SDS011;40181;51.560;13.000;2023-04-06T01:26:19;3.78;;;2.42;;
54269;SDS011;40181;51.560;13.000;2023-04-06T01:28:48;2.25;;;1.98;;
54269;SDS011;40181;51.560;13.000;2023-04-06T01:31:17;3.40;;;2.65;;
54269;SDS011;40181;51.560;13.000;2023-04-06T01:33:46;2.83;;;1.95;;
54269;SDS011;40181;51.560;13.000;2023-04-06T01:36:15;3.38;;;2.10;;
54269;SDS011;40181;51.560;13.000;2023-04-06T01:38:44;3.88;;;2.20;;
54269;SDS011;40181;51.560;13.000;2023-04-06T01:41:16;2.03;;;1.75;;
54269;SDS011;40181;51.560;13.000;2023-04-06T01:43:46;3.35;;;2.13;;
54269;SDS011;40181;51.560;13.000;2023-04-06T01:46:19;2.45;;;1.98;;
54269;SDS011;40181;51.560;13.000;2023-04-06T01:48:48;2.65;;;2.22;;
54269;SDS011;40181;51.560;13.000;2023-04-06T01:51:17;4.32;;;2.42;;
54269;SDS011;40181;51.560;13.000;2023-04-06T01:53:46;2.67;;;2.00;;
54269;SDS011;40181;51.560;13.000;2023-04-06T01:56:18;3.05;;;2.20;;
54269;SDS011;40181;51.560;13.000;2023-04-06T01:58:47;3.05;;;2.30;;
54269;SDS011;40181;51.560;13.000;2023-04-06T02:01:16;2.60;;;2.33;;
54269;SDS011;40181;51.560;13.000;2023-04-06T02:03:45;2.90;;;2.33;;
54269;SDS011;40181;51.560;13.000;2023-04-06T02:06:14;3.28;;;2.40;;
54269;SDS011;40181;51.560;13.000;2023-04-06T02:08:43;2.90;;;2.60;;
54269;SDS011;40181;51.560;13.000;2023-04-06T02:11:12;3.97;;;2.67;;
54269;SDS011;40181;51.560;13.000;2023-04-06T02:13:44;2.65;;;2.10;;
54269;SDS011;40181;51.560;13.000;2023-04-06T02:16:13;2.55;;;2.22;;
54269;SDS011;40181;51.560;13.000;2023-04-06T02:18:42;3.80;;;2.58;;
54269;SDS011;40181;51.560;13.000;2023-04-06T02:21:11;2.92;;;2.53;;
54269;SDS011;40181;51.560;13.000;2023-04-06T02:23:44;3.05;;;2.38;;
54269;SDS011;40181;51.560;13.000;2023-04-06T02:26:14;3.58;;;2.45;;
54269;SDS011;40181;51.560;13.000;2023-04-06T02:28:46;4.00;;;3.03;;
54269;SDS011;40181;51.560;13.000;2023-04-06T02:31:15;3.17;;;2.30;;
54269;SDS011;40181;51.560;13.000;2023-04-06T02:33:44;3.60;;;2.83;;
54269;SDS011;40181;51.560;13.000;2023-04-06T02:36:13;5.70;;;2.53;;
54269;SDS011;40181;51.560;13.000;2023-04-06T02:38:42;4.43;;;2.72;;
54269;SDS011;40181;51.560;13.000;2023-04-06T02:41:11;2.42;;;2.20;;
54269;SDS011;40181;51.560;13.000;2023-04-06T02:43:40;4.10;;;3.40;;
54269;SDS011;40181;51.560;13.000;2023-04-06T02:46:12;4.07;;;2.95;;
54269;SDS011;40181;51.560;13.000;2023-04-06T02:48:41;3.40;;;2.67;;
54269;SDS011;40181;51.560;13.000;2023-04-06T02:51:10;3.28;;;2.97;;
54269;SDS011;40181;51.560;13.000;2023-04-06T02:53:39;3.95;;;3.38;;
54269;SDS011;40181;51.560;13.000;2023-04-06T02:56:07;4.18;;;2.97;;
54269;SDS011;40181;51.560;13.000;2023-04-06T02:58:36;3.65;;;3.17;;
54269;SDS011;40181;51.560;13.000;2023-04-06T03:01:05;4.50;;;3.13;;
54269;SDS011;40181;51.560;13.000;2023-04-06T03:03:37;5.60;;;3.63;;
54269;SDS011;40181;51.560;13.000;2023-04-06T03:06:06;4.00;;;2.95;;
54269;SDS011;40181;51.560;13.000;2023-04-06T03:08:35;6.10;;;3.67;;
54269;SDS011;40181;51.560;13.000;2023-04-06T03:11:04;3.55;;;3.25;;
54269;SDS011;40181;51.560;13.000;2023-04-06T03:13:33;3.95;;;3.08;;
54269;SDS011;40181;51.560;13.000;2023-04-06T03:16:04;4.15;;;3.05;;
54269;SDS011;40181;51.560;13.000;2023-04-06T03:18:33;4.47;;;3.78;;
54269;SDS011;40181;51.560;13.000;2023-04-06T03:21:05;4.47;;;3.55;;
54269;SDS011;40181;51.560;13.000;2023-04-06T03:23:34;3.75;;;3.40;;
54269;SDS011;40181;51.560;13.000;2023-04-06T03:26:03;4.80;;;4.32;;
54269;SDS011;40181;51.560;13.000;2023-04-06T03:28:32;6.63;;;3.75;;
54269;SDS011;40181;51.560;13.000;2023-04-06T03:31:01;4.38;;;3.30;;
54269;SDS011;40181;51.560;13.000;2023-04-06T03:33:30;5.05;;;3.92;;
54269;SDS011;40181;51.560;13.000;2023-04-06T03:36:02;3.97;;;3.55;;
54269;SDS011;40181;51.560;13.000;2023-04-06T03:38:33;4.18;;;3.63;;
54269;SDS011;40181;51.560;13.000;2023-04-06T03:41:02;4.45;;;3.80;;
54269;SDS011;40181;51.560;13.000;2023-04-06T03:43:31;10.82;;;3.58;;
54269;SDS011;40181;51.560;13.000;2023-04-06T03:46:00;4.45;;;3.83;;
54269;SDS011;40181;51.560;13.000;2023-04-06T03:48:29;4.40;;;3.72;;
54269;SDS011;40181;51.560;13.000;2023-04-06T03:50:58;4.57;;;3.80;;
54269;SDS011;40181;51.560;13.000;2023-04-06T03:53:30;4.78;;;4.07;;
54269;SDS011;40181;51.560;13.000;2023-04-06T03:55:59;5.30;;;3.40;;
54269;SDS011;40181;51.560;13.000;2023-04-06T03:58:28;4.90;;;3.50;;
54269;SDS011;40181;51.560;13.000;2023-04-06T04:00:57;3.60;;;3.30;;
54269;SDS011;40181;51.560;13.000;2023-04-06T04:03:26;5.63;;;4.25;;
54269;SDS011;40181;51.560;13.000;2023-04-06T04:05:55;4.65;;;4.22;;
54269;SDS011;40181;51.560;13.000;2023-04-06T04:08:26;8.57;;;3.50;;
54269;SDS011;40181;51.560;13.000;2023-04-06T04:10:55;4.65;;;4.07;;
54269;SDS011;40181;51.560;13.000;2023-04-06T04:13:24;6.18;;;3.90;;
54269;SDS011;40181;51.560;13.000;2023-04-06T04:15:53;4.15;;;3.75;;
54269;SDS011;40181;51.560;13.000;2023-04-06T04:18:22;7.10;;;3.80;;
54269;SDS011;40181;51.560;13.000;2023-04-06T04:20:52;4.68;;;4.22;;
54269;SDS011;40181;51.560;13.000;2023-04-06T04:23:21;3.97;;;3.58;;
54269;SDS011;40181;51.560;13.000;2023-04-06T04:25:53;4.32;;;3.70;;
54269;SDS011;40181;51.560;13.000;2023-04-06T04:28:22;7.68;;;4.47;;
54269;SDS011;40181;51.560;13.000;2023-04-06T04:30:51;5.50;;;4.03;;
54269;SDS011;40181;51.560;13.000;2023-04-06T04:33:20;5.03;;;3.95;;
54269;SDS011;40181;51.560;13.000;2023-04-06T04:35:49;5.28;;;4.43;;
54269;SDS011;40181;51.560;13.000;2023-04-06T04:38:18;3.55;;;3.05;;
54269;SDS011;40181;51.560;13.000;2023-04-06T04:40:47;4.35;;;3.83;;
54269;SDS011;40181;51.560;13.000;2023-04-06T04:43:18;5.85;;;4.35;;
54269;SDS011;40181;51.560;13.000;2023-04-06T04:45:47;4.88;;;4.07;;
54269;SDS011;40181;51.560;13.000;2023-04-06T04:48:17;4.43;;;4.03;;
54269;SDS011;40181;51.560;13.000;2023-04-06T04:50:47;6.45;;;4.78;;
54269;SDS011;40181;51.560;13.000;2023-04-06T04:53:16;4.93;;;4.18;;
54269;SDS011;40181;51.560;13.000;2023-04-06T04:55:45;8.18;;;4.35;;
54269;SDS011;40181;51.560;13.000;2023-04-06T04:58:14;5.28;;;3.97;;
54269;SDS011;40181;51.560;13.000;2023-04-06T05:00:47;9.18;;;4.70;;
54269;SDS011;40181;51.560;13.000;2023-04-06T05:03:17;5.35;;;4.50;;
54269;SDS011;40181;51.560;13.000;2023-04-06T05:05:50;4.93;;;4.43;;
54269;SDS011;40181;51.560;13.000;2023-04-06T05:08:19;7.75;;;4.95;;
54269;SDS011;40181;51.560;13.000;2023-04-06T05:10:48;5.72;;;4.07;;
54269;SDS011;40181;51.560;13.000;2023-04-06T05:13:17;4.63;;;3.90;;
54269;SDS011;40181;51.560;13.000;2023-04-06T05:15:49;4.78;;;4.00;;
54269;SDS011;40181;51.560;13.000;2023-04-06T05:18:18;4.47;;;4.03;;
54269;SDS011;40181;51.560;13.000;2023-04-06T05:20:47;4.90;;;4.05;;
54269;SDS011;40181;51.560;13.000;2023-04-06T05:23:16;10.32;;;5.15;;
54269;SDS011;40181;51.560;13.000;2023-04-06T05:25:45;5.75;;;4.68;;
54269;SDS011;40181;51.560;13.000;2023-04-06T05:28:15;5.80;;;4.63;;
54269;SDS011;40181;51.560;13.000;2023-04-06T05:30:44;6.47;;;5.20;;
54269;SDS011;40181;51.560;13.000;2023-04-06T05:33:16;6.18;;;4.55;;
54269;SDS011;40181;51.560;13.000;2023-04-06T05:35:45;8.80;;;5.00;;
54269;SDS011;40181;51.560;13.000;2023-04-06T05:38:14;6.30;;;4.35;;
54269;SDS011;40181;51.560;13.000;2023-04-06T05:40:43;7.68;;;4.63;;
54269;SDS011;40181;51.560;13.000;2023-04-06T05:43:12;5.25;;;4.45;;
54269;SDS011;40181;51.560;13.000;2023-04-06T05:45:43;4.65;;;4.15;;
54269;SDS011;40181;51.560;13.000;2023-04-06T05:48:15;7.03;;;4.35;;
54269;SDS011;40181;51.560;13.000;2023-04-06T05:50:47;5.32;;;3.85;;
54269;SDS011;40181;51.560;13.000;2023-04-06T05:53:18;5.53;;;4.30;;
54269;SDS011;40181;51.560;13.000;2023-04-06T05:55:47;6.38;;;4.47;;
54269;SDS011;40181;51.560;13.000;2023-04-06T05:58:16;6.95;;;4.82;;
54269;SDS011;40181;51.560;13.000;2023-04-06T06:00:45;5.32;;;4.78;;
54269;SDS011;40181;51.560;13.000;2023-04-06T06:03:17;7.15;;;4.28;;
54269;SDS011;40181;51.560;13.000;2023-04-06T06:05:47;5.40;;;4.20;;
54269;SDS011;40181;51.560;13.000;2023-04-06T06:08:16;5.93;;;4.90;;
54269;SDS011;40181;51.560;13.000;2023-04-06T06:10:45;7.47;;;5.65;;
54269;SDS011;40181;51.560;13.000;2023-04-06T06:13:15;6.10;;;5.03;;
54269;SDS011;40181;51.560;13.000;2023-04-06T06:15:44;6.63;;;4.95;;
54269;SDS011;40181;51.560;13.000;2023-04-06T06:18:18;6.28;;;5.53;;
54269;SDS011;40181;51.560;13.000;2023-04-06T06:20:47;6.43;;;4.97;;
54269;SDS011;40181;51.560;13.000;2023-04-06T06:23:16;6.63;;;5.13;;
54269;SDS011;40181;51.560;13.000;2023-04-06T06:25:45;7.90;;;4.85;;
54269;SDS011;40181;51.560;13.000;2023-04-06T06:28:14;7.20;;;5.13;;
54269;SDS011;40181;51.560;13.000;2023-04-06T06:30:43;7.53;;;4.90;;
54269;SDS011;40181;51.560;13.000;2023-04-06T06:33:12;5.18;;;4.68;;
54269;SDS011;40181;51.560;13.000;2023-04-06T06:35:43;6.03;;;4.53;;
54269;SDS011;40181;51.560;13.000;2023-04-06T06:38:12;8.30;;;5.05;;
54269;SDS011;40181;51.560;13.000;2023-04-06T06:40:42;5.28;;;4.72;;
54269;SDS011;40181;51.560;13.000;2023-04-06T06:43:12;5.60;;;4.95;;
54269;SDS011;40181;51.560;13.000;2023-04-06T06:45:41;7.63;;;4.85;;
54269;SDS011;40181;51.560;13.000;2023-04-06T06:48:10;5.43;;;4.70;;
54269;SDS011;40181;51.560;13.000;2023-04-06T06:50:39;5.13;;;3.90;;
54269;SDS011;40181;51.560;13.000;2023-04-06T06:53:11;4.57;;;4.05;;
54269;SDS011;40181;51.560;13.000;2023-04-06T06:55:41;4.82;;;4.28;;
54269;SDS011;40181;51.560;13.000;2023-04-06T06:58:10;5.65;;;3.97;;
54269;SDS011;40181;51.560;13.000;2023-04-06T07:00:39;5.18;;;3.50;;
54269;SDS011;40181;51.560;13.000;2023-04-06T07:03:08;5.70;;;4.05;;
54269;SDS011;40181;51.560;13.000;2023-04-06T07:05:37;7.18;;;4.50;;
54269;SDS011;40181;51.560;13.000;2023-04-06T07:08:06;8.13;;;4.43;;
54269;SDS011;40181;51.560;13.000;2023-04-06T07:10:38;11.18;;;5.18;;
54269;SDS011;40181;51.560;13.000;2023-04-06T07:13:07;4.97;;;4.07;;
54269;SDS011;40181;51.560;13.000;2023-04-06T07:15:36;5.45;;;4.10;;
54269;SDS011;40181;51.560;13.000;2023-04-06T07:18:05;9.52;;;4.25;;
54269;SDS011;40181;51.560;13.000;2023-04-06T07:20:34;4.28;;;3.72;;
54269;SDS011;40181;51.560;13.000;2023-04-06T07:23:03;6.25;;;4.68;;
54269;SDS011;40181;51.560;13.000;2023-04-06T07:25:32;4.38;;;3.38;;
54269;SDS011;40181;51.560;13.000;2023-04-06T07:28:04;4.68;;;3.90;;
54269;SDS011;40181;51.560;13.000;2023-04-06T07:30:33;5.07;;;4.22;;
54269;SDS011;40181;51.560;13.000;2023-04-06T07:33:03;8.25;;;4.13;;
54269;SDS011;40181;51.560;13.000;2023-04-06T07:35:33;4.70;;;4.15;;
54269;SDS011;40181;51.560;13.000;2023-04-06T07:38:02;4.72;;;3.92;;
54269;SDS011;40181;51.560;13.000;2023-04-06T07:40:32;5.65;;;4.15;;
54269;SDS011;40181;51.560;13.000;2023-04-06T07:43:01;8.85;;;4.32;;
54269;SDS011;40181;51.560;13.000;2023-04-06T07:45:32;5.70;;;4.00;;
54269;SDS011;40181;51.560;13.000;2023-04-06T07:48:01;6.05;;;4.50;;
54269;SDS011;40181;51.560;13.000;2023-04-06T07:50:31;8.40;;;4.45;;
54269;SDS011;40181;51.560;13.000;2023-04-06T07:53:00;4.95;;;3.50;;
54269;SDS011;40181;51.560;13.000;2023-04-06T07:55:29;5.43;;;3.55;;
54269;SDS011;40181;51.560;13.000;2023-04-06T07:57:58;4.35;;;3.42;;
54269;SDS011;40181;51.560;13.000;2023-04-06T08:00:29;5.68;;;3.65;;
54269;SDS011;40181;51.560;13.000;2023-04-06T08:02:58;7.93;;;4.07;;
54269;SDS011;40181;51.560;13.000;2023-04-06T08:05:27;10.80;;;4.55;;
54269;SDS011;40181;51.560;13.000;2023-04-06T08:07:56;6.03;;;4.00;;
54269;SDS011;40181;51.560;13.000;2023-04-06T08:10:25;6.28;;;4.10;;
54269;SDS011;40181;51.560;13.000;2023-04-06T08:12:54;4.20;;;3.58;;
54269;SDS011;40181;51.560;13.000;2023-04-06T08:15:23;5.82;;;3.95;;
54269;SDS011;40181;51.560;13.000;2023-04-06T08:17:55;5.32;;;3.85;;
54269;SDS011;40181;51.560;13.000;2023-04-06T08:20:24;4.18;;;3.22;;
54269;SDS011;40181;51.560;13.000;2023-04-06T08:22:54;5.57;;;4.03;;
54269;SDS011;40181;51.560;13.000;2023-04-06T08:25:23;5.82;;;3.72;;
54269;SDS011;40181;51.560;13.000;2023-04-06T08:27:52;7.53;;;4.28;;
54269;SDS011;40181;51.560;13.000;2023-04-06T08:30:21;5.55;;;4.03;;
54269;SDS011;40181;51.560;13.000;2023-04-06T08:32:50;5.40;;;4.35;;
54269;SDS011;40181;51.560;13.000;2023-04-06T08:35:22;5.53;;;3.78;;
54269;SDS011;40181;51.560;13.000;2023-04-06T08:37:50;4.28;;;3.15;;
54269;SDS011;40181;51.560;13.000;2023-04-06T08:40:20;4.57;;;3.63;;
54269;SDS011;40181;51.560;13.000;2023-04-06T08:42:49;3.83;;;2.88;;
54269;SDS011;40181;51.560;13.000;2023-04-06T08:45:22;6.50;;;3.42;;
54269;SDS011;40181;51.560;13.000;2023-04-06T08:47:51;4.77;;;3.67;;
54269;SDS011;40181;51.560;13.000;2023-04-06T08:50:24;3.92;;;2.90;;
54269;SDS011;40181;51.560;13.000;2023-04-06T08:52:54;4.55;;;3.20;;
54269;SDS011;40181;51.560;13.000;2023-04-06T08:55:24;3.90;;;2.37;;
54269;SDS011;40181;51.560;13.000;2023-04-06T08:57:54;5.50;;;3.85;;
54269;SDS011;40181;51.560;13.000;2023-04-06T09:00:24;5.83;;;3.53;;
54269;SDS011;40181;51.560;13.000;2023-04-06T09:05:27;6.47;;;2.63;;
54269;SDS011;40181;51.560;13.000;2023-04-06T09:07:56;3.53;;;2.97;;
54269;SDS011;40181;51.560;13.000;2023-04-06T09:10:25;6.72;;;4.10;;
54269;SDS011;40181;51.560;13.000;2023-04-06T09:13:02;5.40;;;3.47;;
54269;SDS011;40181;51.560;13.000;2023-04-06T09:15:32;4.75;;;3.33;;
54269;SDS011;40181;51.560;13.000;2023-04-06T09:18:02;6.20;;;3.83;;
54269;SDS011;40181;51.560;13.000;2023-04-06T09:20:34;4.18;;;3.28;;
54269;SDS011;40181;51.560;13.000;2023-04-06T09:23:03;3.75;;;3.10;;
54269;SDS011;40181;51.560;13.000;2023-04-06T09:25:32;4.53;;;3.20;;
54269;SDS011;40181;51.560;13.000;2023-04-06T09:28:01;4.82;;;3.40;;
54269;SDS011;40181;51.560;13.000;2023-04-06T09:30:32;4.55;;;3.25;;
54269;SDS011;40181;51.560;13.000;2023-04-06T09:33:03;5.13;;;3.58;;
54269;SDS011;40181;51.560;13.000;2023-04-06T09:35:35;6.20;;;3.45;;
54269;SDS011;40181;51.560;13.000;2023-04-06T09:38:10;3.25;;;2.45;;
54269;SDS011;40181;51.560;13.000;2023-04-06T09:40:47;12.73;;;3.40;;
54269;SDS011;40181;51.560;13.000;2023-04-06T09:43:23;3.72;;;3.05;;
54269;SDS011;40181;51.560;13.000;2023-04-06T09:45:53;3.10;;;2.63;;
54269;SDS011;40181;51.560;13.000;2023-04-06T09:50:57;4.72;;;3.28;;
54269;SDS011;40181;51.560;13.000;2023-04-06T09:53:31;4.78;;;3.10;;
54269;SDS011;40181;51.560;13.000;2023-04-06T09:56:05;4.07;;;3.13;;
54269;SDS011;40181;51.560;13.000;2023-04-06T09:58:40;3.92;;;2.85;;
54269;SDS011;40181;51.560;13.000;2023-04-06T10:01:12;5.20;;;3.00;;
54269;SDS011;40181;51.560;13.000;2023-04-06T10:03:45;4.35;;;3.00;;
54269;SDS011;40181;51.560;13.000;2023-04-06T10:06:27;4.93;;;2.95;;
54269;SDS011;40181;51.560;13.000;2023-04-06T10:09:02;6.20;;;3.30;;
54269;SDS011;40181;51.560;13.000;2023-04-06T10:11:34;4.75;;;3.25;;
54269;SDS011;40181;51.560;13.000;2023-04-06T10:14:04;5.35;;;3.30;;
54269;SDS011;40181;51.560;13.000;2023-04-06T10:16:33;4.37;;;3.10;;
54269;SDS011;40181;51.560;13.000;2023-04-06T10:19:05;3.03;;;2.72;;
54269;SDS011;40181;51.560;13.000;2023-04-06T10:21:43;3.75;;;2.65;;
54269;SDS011;40181;51.560;13.000;2023-04-06T10:24:17;3.65;;;2.60;;
54269;SDS011;40181;51.560;13.000;2023-04-06T10:26:56;3.97;;;2.83;;
54269;SDS011;40181;51.560;13.000;2023-04-06T10:29:26;4.40;;;2.63;;
54269;SDS011;40181;51.560;13.000;2023-04-06T10:31:55;5.68;;;3.15;;
54269;SDS011;40181;51.560;13.000;2023-04-06T10:34:33;9.10;;;2.78;;
54269;SDS011;40181;51.560;13.000;2023-04-06T10:37:12;5.05;;;2.38;;
54269;SDS011;40181;51.560;13.000;2023-04-06T10:39:47;10.35;;;3.30;;
54269;SDS011;40181;51.560;13.000;2023-04-06T10:42:23;4.43;;;2.47;;
54269;SDS011;40181;51.560;13.000;2023-04-06T10:44:52;2.97;;;2.42;;
54269;SDS011;40181;51.560;13.000;2023-04-06T10:47:21;6.03;;;3.70;;
54269;SDS011;40181;51.560;13.000;2023-04-06T10:49:50;3.78;;;2.58;;
54269;SDS011;40181;51.560;13.000;2023-04-06T10:52:22;4.72;;;2.88;;
54269;SDS011;40181;51.560;13.000;2023-04-06T10:54:51;5.15;;;3.60;;
54269;SDS011;40181;51.560;13.000;2023-04-06T10:57:27;3.27;;;2.63;;
54269;SDS011;40181;51.560;13.000;2023-04-06T10:59:57;7.25;;;3.20;;
54269;SDS011;40181;51.560;13.000;2023-04-06T11:02:26;3.30;;;2.53;;
54269;SDS011;40181;51.560;13.000;2023-04-06T11:04:56;4.28;;;2.63;;
54269;SDS011;40181;51.560;13.000;2023-04-06T11:07:28;10.93;;;2.83;;
54269;SDS011;40181;51.560;13.000;2023-04-06T11:09:57;5.30;;;3.67;;
54269;SDS011;40181;51.560;13.000;2023-04-06T11:12:27;4.15;;;3.00;;
54269;SDS011;40181;51.560;13.000;2023-04-06T11:14:57;8.07;;;2.78;;
54269;SDS011;40181;51.560;13.000;2023-04-06T11:17:29;2.50;;;1.85;;
54269;SDS011;40181;51.560;13.000;2023-04-06T11:20:00;6.03;;;2.45;;
54269;SDS011;40181;51.560;13.000;2023-04-06T11:22:33;3.67;;;2.00;;
54269;SDS011;40181;51.560;13.000;2023-04-06T11:25:05;3.75;;;1.98;;
54269;SDS011;40181;51.560;13.000;2023-04-06T11:27:36;3.53;;;2.08;;
54269;SDS011;40181;51.560;13.000;2023-04-06T11:30:07;3.05;;;2.60;;
54269;SDS011;40181;51.560;13.000;2023-04-06T11:32:39;2.33;;;1.80;;
54269;SDS011;40181;51.560;13.000;2023-04-06T11:35:19;4.75;;;2.92;;
54269;SDS011;40181;51.560;13.000;2023-04-06T11:37:51;3.63;;;2.72;;
54269;SDS011;40181;51.560;13.000;2023-04-06T11:40:21;4.05;;;2.80;;
54269;SDS011;40181;51.560;13.000;2023-04-06T11:42:53;2.42;;;1.90;;
54269;SDS011;40181;51.560;13.000;2023-04-06T11:45:23;2.75;;;1.98;;
54269;SDS011;40181;51.560;13.000;2023-04-06T11:47:55;3.30;;;2.25;;
54269;SDS011;40181;51.560;13.000;2023-04-06T11:50:31;3.17;;;1.85;;
54269;SDS011;40181;51.560;13.000;2023-04-06T11:53:04;3.38;;;2.75;;
54269;SDS011;40181;51.560;13.000;2023-04-06T11:55:36;3.13;;;1.95;;
54269;SDS011;40181;51.560;13.000;2023-04-06T11:58:10;4.13;;;2.42;;
54269;SDS011;40181;51.560;13.000;2023-04-06T12:00:39;3.85;;;2.67;;
54269;SDS011;40181;51.560;13.000;2023-04-06T12:03:10;2.92;;;1.85;;
54269;SDS011;40181;51.560;13.000;2023-04-06T12:05:39;2.55;;;1.90;;
54269;SDS011;40181;51.560;13.000;2023-04-06T12:08:10;5.05;;;2.63;;
54269;SDS011;40181;51.560;13.000;2023-04-06T12:10:39;3.00;;;2.38;;
54269;SDS011;40181;51.560;13.000;2023-04-06T12:13:08;3.60;;;2.58;;
54269;SDS011;40181;51.560;13.000;2023-04-06T12:15:37;6.57;;;3.88;;
54269;SDS011;40181;51.560;13.000;2023-04-06T12:18:06;5.07;;;2.85;;
54269;SDS011;40181;51.560;13.000;2023-04-06T12:20:36;3.03;;;2.33;;
54269;SDS011;40181;51.560;13.000;2023-04-06T12:23:05;1.58;;;1.48;;
54269;SDS011;40181;51.560;13.000;2023-04-06T12:25:36;4.07;;;2.22;;
54269;SDS011;40181;51.560;13.000;2023-04-06T12:28:08;2.78;;;1.67;;
54269;SDS011;40181;51.560;13.000;2023-04-06T12:30:37;2.45;;;1.85;;
54269;SDS011;40181;51.560;13.000;2023-04-06T12:33:07;6.90;;;3.20;;
54269;SDS011;40181;51.560;13.000;2023-04-06T12:35:36;6.53;;;2.65;;
54269;SDS011;40181;51.560;13.000;2023-04-06T12:38:05;3.88;;;2.65;;
54269;SDS011;40181;51.560;13.000;2023-04-06T12:40:38;5.10;;;2.10;;
54269;SDS011;40181;51.560;13.000;2023-04-06T12:43:08;2.72;;;1.80;;
54269;SDS011;40181;51.560;13.000;2023-04-06T12:45:38;3.40;;;2.28;;
54269;SDS011;40181;51.560;13.000;2023-04-06T12:48:07;3.58;;;2.35;;
54269;SDS011;40181;51.560;13.000;2023-04-06T12:50:36;4.68;;;2.70;;
54269;SDS011;40181;51.560;13.000;2023-04-06T12:53:05;3.08;;;2.10;;
54269;SDS011;40181;51.560;13.000;2023-04-06T12:55:35;3.95;;;2.55;;
54269;SDS011;40181;51.560;13.000;2023-04-06T12:58:06;7.70;;;2.85;;
54269;SDS011;40181;51.560;13.000;2023-04-06T13:00:35;4.18;;;2.47;;
54269;SDS011;40181;51.560;13.000;2023-04-06T13:03:04;4.32;;;3.03;;
54269;SDS011;40181;51.560;13.000;2023-04-06T13:05:33;2.80;;;1.83;;
54269;SDS011;40181;51.560;13.000;2023-04-06T13:08:02;4.50;;;2.63;;
54269;SDS011;40181;51.560;13.000;2023-04-06T13:10:31;3.15;;;2.42;;
54269;SDS011;40181;51.560;13.000;2023-04-06T13:13:03;5.32;;;2.83;;
54269;SDS011;40181;51.560;13.000;2023-04-06T13:15:32;3.45;;;2.90;;
54269;SDS011;40181;51.560;13.000;2023-04-06T13:18:01;3.53;;;2.17;;
54269;SDS011;40181;51.560;13.000;2023-04-06T13:20:31;6.13;;;2.78;;
54269;SDS011;40181;51.560;13.000;2023-04-06T13:23:00;3.95;;;2.65;;
54269;SDS011;40181;51.560;13.000;2023-04-06T13:25:29;3.67;;;3.03;;
54269;SDS011;40181;51.560;13.000;2023-04-06T13:27:58;3.65;;;2.50;;
54269;SDS011;40181;51.560;13.000;2023-04-06T13:30:30;3.13;;;2.63;;
54269;SDS011;40181;51.560;13.000;2023-04-06T13:32:59;4.57;;;3.20;;
54269;SDS011;40181;51.560;13.000;2023-04-06T13:35:29;4.40;;;3.10;;
54269;SDS011;40181;51.560;13.000;2023-04-06T13:38:00;6.30;;;3.05;;
54269;SDS011;40181;51.560;13.000;2023-04-06T13:40:29;4.10;;;2.75;;
54269;SDS011;40181;51.560;13.000;2023-04-06T13:42:58;4.45;;;2.67;;
54269;SDS011;40181;51.560;13.000;2023-04-06T13:45:30;3.03;;;1.77;;
54269;SDS011;40181;51.560;13.000;2023-04-06T13:47:59;3.20;;;2.30;;
54269;SDS011;40181;51.560;13.000;2023-04-06T13:50:28;3.05;;;2.20;;
54269;SDS011;40181;51.560;13.000;2023-04-06T13:52:58;3.20;;;2.35;;
54269;SDS011;40181;51.560;13.000;2023-04-06T13:55:27;2.30;;;1.77;;
54269;SDS011;40181;51.560;13.000;2023-04-06T13:57:56;4.30;;;2.90;;
54269;SDS011;40181;51.560;13.000;2023-04-06T14:00:25;3.45;;;2.50;;
54269;SDS011;40181;51.560;13.000;2023-04-06T14:02:56;6.95;;;2.30;;
54269;SDS011;40181;51.560;13.000;2023-04-06T14:05:25;3.42;;;2.17;;
54269;SDS011;40181;51.560;13.000;2023-04-06T14:07:58;2.50;;;1.80;;
54269;SDS011;40181;51.560;13.000;2023-04-06T14:10:27;2.33;;;1.55;;
54269;SDS011;40181;51.560;13.000;2023-04-06T14:12:56;3.60;;;2.78;;
54269;SDS011;40181;51.560;13.000;2023-04-06T14:15:25;3.10;;;2.25;;
54269;SDS011;40181;51.560;13.000;2023-04-06T14:17:57;4.45;;;2.10;;
54269;SDS011;40181;51.560;13.000;2023-04-06T14:20:26;3.00;;;1.48;;
54269;SDS011;40181;51.560;13.000;2023-04-06T14:22:55;4.03;;;2.55;;
54269;SDS011;40181;51.560;13.000;2023-04-06T14:25:24;2.55;;;2.15;;
54269;SDS011;40181;51.560;13.000;2023-04-06T14:27:56;3.10;;;2.25;;
54269;SDS011;40181;51.560;13.000;2023-04-06T14:30:25;3.67;;;1.88;;
54269;SDS011;40181;51.560;13.000;2023-04-06T14:32:58;3.03;;;2.43;;
54269;SDS011;40181;51.560;13.000;2023-04-06T14:35:27;2.65;;;2.00;;
54269;SDS011;40181;51.560;13.000;2023-04-06T14:37:57;3.38;;;2.15;;
54269;SDS011;40181;51.560;13.000;2023-04-06T14:40:26;2.08;;;1.85;;
54269;SDS011;40181;51.560;13.000;2023-04-06T14:42:58;3.60;;;1.95;;
54269;SDS011;40181;51.560;13.000;2023-04-06T14:45:27;2.28;;;1.65;;
54269;SDS011;40181;51.560;13.000;2023-04-06T14:47:59;3.20;;;2.38;;
54269;SDS011;40181;51.560;13.000;2023-04-06T14:50:30;2.47;;;1.88;;
54269;SDS011;40181;51.560;13.000;2023-04-06T14:53:00;2.40;;;1.98;;
54269;SDS011;40181;51.560;13.000;2023-04-06T14:55:29;2.20;;;1.80;;